Terminal Aerodrome Forecast
Issued by NWS

Home | Current Version | Previous Version | Text Only | Print | Product List | Glossary On
Versions: 1 2 3 4 5 6 7 8 9 10 11 12 13
993
FTUS41 KBTV 011737
TAFRUT
TAF
KRUT 011737Z 0118/0218 14014G20KT P6SM VCSH OVC035
     FM012300 20011KT 6SM -SHRA BR OVC035
      TEMPO 0123/0201 3SM -SHRA BR OVC020
     FM020300 22012KT 4SM -SHRA BR OVC050
     FM020500 25011G27KT 6SM -SHRA BR OVC035
     FM021000 26016G34KT P6SM VCSH BKN040
     FM021600 28018G37KT P6SM BKN045=

USA.gov is the U.S. government's official web portal to all federal, state and local government web resources and services.